sensor_id;sensor_type;location;lat;lon;timestamp;temperature;humidity
19110;DHT22;9687;50.836;12.060;2023-09-19T00:00:14;20.80;92.40
19110;DHT22;9687;50.836;12.060;2023-09-19T00:02:41;20.80;92.40
19110;DHT22;9687;50.836;12.060;2023-09-19T00:05:17;20.80;92.40
19110;DHT22;9687;50.836;12.060;2023-09-19T00:07:58;20.80;92.30
19110;DHT22;9687;50.836;12.060;2023-09-19T00:10:35;20.80;92.30
19110;DHT22;9687;50.836;12.060;2023-09-19T00:13:09;20.80;92.30
19110;DHT22;9687;50.836;12.060;2023-09-19T00:15:45;20.70;92.30
19110;DHT22;9687;50.836;12.060;2023-09-19T00:18:24;20.70;92.30
19110;DHT22;9687;50.836;12.060;2023-09-19T00:21:01;20.70;92.30
19110;DHT22;9687;50.836;12.060;2023-09-19T00:23:41;20.70;92.20
19110;DHT22;9687;50.836;12.060;2023-09-19T00:26:17;20.70;92.10
19110;DHT22;9687;50.836;12.060;2023-09-19T00:28:54;20.70;92.10
19110;DHT22;9687;50.836;12.060;2023-09-19T00:31:26;20.70;92.00
19110;DHT22;9687;50.836;12.060;2023-09-19T00:34:00;20.70;92.00
19110;DHT22;9687;50.836;12.060;2023-09-19T00:36:47;20.70;91.90
19110;DHT22;9687;50.836;12.060;2023-09-19T00:39:24;20.70;91.90
19110;DHT22;9687;50.836;12.060;2023-09-19T00:41:57;20.70;91.80
19110;DHT22;9687;50.836;12.060;2023-09-19T00:44:37;20.70;91.80
19110;DHT22;9687;50.836;12.060;2023-09-19T00:47:12;20.60;91.70
19110;DHT22;9687;50.836;12.060;2023-09-19T00:49:46;20.60;91.70
19110;DHT22;9687;50.836;12.060;2023-09-19T00:52:23;20.60;91.70
19110;DHT22;9687;50.836;12.060;2023-09-19T00:55:01;20.70;91.80
19110;DHT22;9687;50.836;12.060;2023-09-19T00:57:36;20.60;91.70
19110;DHT22;9687;50.836;12.060;2023-09-19T01:00:12;20.60;91.70
19110;DHT22;9687;50.836;12.060;2023-09-19T01:03:00;20.60;91.60
19110;DHT22;9687;50.836;12.060;2023-09-19T01:05:35;20.60;91.60
19110;DHT22;9687;50.836;12.060;2023-09-19T01:08:08;20.60;91.60
19110;DHT22;9687;50.836;12.060;2023-09-19T01:10:51;20.60;91.50
19110;DHT22;9687;50.836;12.060;2023-09-19T01:13:34;20.60;91.50
19110;DHT22;9687;50.836;12.060;2023-09-19T01:16:15;20.60;91.50
19110;DHT22;9687;50.836;12.060;2023-09-19T01:18:58;20.60;91.40
19110;DHT22;9687;50.836;12.060;2023-09-19T01:21:41;20.50;91.40
19110;DHT22;9687;50.836;12.060;2023-09-19T01:24:25;20.50;91.50
19110;DHT22;9687;50.836;12.060;2023-09-19T01:27:33;20.50;91.40
19110;DHT22;9687;50.836;12.060;2023-09-19T01:30:20;20.50;91.40
19110;DHT22;9687;50.836;12.060;2023-09-19T01:32:54;20.40;91.30
19110;DHT22;9687;50.836;12.060;2023-09-19T01:35:38;20.50;91.40
19110;DHT22;9687;50.836;12.060;2023-09-19T01:38:11;20.50;91.40
19110;DHT22;9687;50.836;12.060;2023-09-19T01:40:48;20.40;91.30
19110;DHT22;9687;50.836;12.060;2023-09-19T01:43:30;20.50;91.40
19110;DHT22;9687;50.836;12.060;2023-09-19T01:46:12;20.40;91.30
19110;DHT22;9687;50.836;12.060;2023-09-19T01:48:46;20.40;91.30
19110;DHT22;9687;50.836;12.060;2023-09-19T01:51:26;20.40;91.30
19110;DHT22;9687;50.836;12.060;2023-09-19T01:54:07;20.40;91.30
19110;DHT22;9687;50.836;12.060;2023-09-19T01:57:07;20.40;91.30
19110;DHT22;9687;50.836;12.060;2023-09-19T01:59:39;20.40;91.30
19110;DHT22;9687;50.836;12.060;2023-09-19T02:02:14;20.40;91.20
19110;DHT22;9687;50.836;12.060;2023-09-19T02:04:50;20.40;91.20
19110;DHT22;9687;50.836;12.060;2023-09-19T02:07:24;20.30;91.10
19110;DHT22;9687;50.836;12.060;2023-09-19T02:10:00;20.30;91.10
19110;DHT22;9687;50.836;12.060;2023-09-19T02:12:45;20.30;91.20
19110;DHT22;9687;50.836;12.060;2023-09-19T02:15:20;20.30;91.20
19110;DHT22;9687;50.836;12.060;2023-09-19T02:17:50;20.30;91.20
19110;DHT22;9687;50.836;12.060;2023-09-19T02:20:17;20.30;91.20
19110;DHT22;9687;50.836;12.060;2023-09-19T02:22:46;20.20;91.10
19110;DHT22;9687;50.836;12.060;2023-09-19T02:25:16;20.20;91.10
19110;DHT22;9687;50.836;12.060;2023-09-19T02:28:03;20.20;91.20
19110;DHT22;9687;50.836;12.060;2023-09-19T02:30:40;20.20;91.20
19110;DHT22;9687;50.836;12.060;2023-09-19T02:33:24;20.20;91.20
19110;DHT22;9687;50.836;12.060;2023-09-19T02:35:55;20.20;91.20
19110;DHT22;9687;50.836;12.060;2023-09-19T02:38:24;20.20;91.20
19110;DHT22;9687;50.836;12.060;2023-09-19T02:40:56;20.20;91.20
19110;DHT22;9687;50.836;12.060;2023-09-19T02:43:26;20.20;91.20
19110;DHT22;9687;50.836;12.060;2023-09-19T02:45:54;20.10;91.10
19110;DHT22;9687;50.836;12.060;2023-09-19T02:48:30;20.20;91.20
19110;DHT22;9687;50.836;12.060;2023-09-19T02:51:08;20.10;91.10
19110;DHT22;9687;50.836;12.060;2023-09-19T02:53:36;20.10;91.20
19110;DHT22;9687;50.836;12.060;2023-09-19T02:56:18;20.10;91.20
19110;DHT22;9687;50.836;12.060;2023-09-19T02:58:55;20.10;91.20
19110;DHT22;9687;50.836;12.060;2023-09-19T03:01:23;20.10;91.20
19110;DHT22;9687;50.836;12.060;2023-09-19T03:03:57;20.10;91.20
19110;DHT22;9687;50.836;12.060;2023-09-19T03:06:34;20.10;91.20
19110;DHT22;9687;50.836;12.060;2023-09-19T03:09:06;20.10;91.20
19110;DHT22;9687;50.836;12.060;2023-09-19T03:11:44;20.10;91.20
19110;DHT22;9687;50.836;12.060;2023-09-19T03:14:12;20.10;91.20
19110;DHT22;9687;50.836;12.060;2023-09-19T03:16:41;20.10;91.20
19110;DHT22;9687;50.836;12.060;2023-09-19T03:19:19;20.00;91.10
19110;DHT22;9687;50.836;12.060;2023-09-19T03:21:50;20.00;91.10
19110;DHT22;9687;50.836;12.060;2023-09-19T03:24:17;20.00;91.10
19110;DHT22;9687;50.836;12.060;2023-09-19T03:26:53;20.00;91.10
19110;DHT22;9687;50.836;12.060;2023-09-19T03:29:21;20.00;91.10
19110;DHT22;9687;50.836;12.060;2023-09-19T03:31:48;20.00;91.10
19110;DHT22;9687;50.836;12.060;2023-09-19T03:34:35;20.00;91.10
19110;DHT22;9687;50.836;12.060;2023-09-19T03:37:06;20.00;91.10
19110;DHT22;9687;50.836;12.060;2023-09-19T03:39:33;19.90;91.10
19110;DHT22;9687;50.836;12.060;2023-09-19T03:42:08;19.90;91.10
19110;DHT22;9687;50.836;12.060;2023-09-19T03:44:40;19.90;91.10
19110;DHT22;9687;50.836;12.060;2023-09-19T03:47:07;19.90;91.10
19110;DHT22;9687;50.836;12.060;2023-09-19T03:49:42;19.90;91.10
19110;DHT22;9687;50.836;12.060;2023-09-19T03:52:22;19.90;91.20
19110;DHT22;9687;50.836;12.060;2023-09-19T03:54:50;19.90;91.20
19110;DHT22;9687;50.836;12.060;2023-09-19T03:57:40;19.90;91.20
19110;DHT22;9687;50.836;12.060;2023-09-19T04:00:08;19.90;91.50
19110;DHT22;9687;50.836;12.060;2023-09-19T04:02:37;19.90;91.20
19110;DHT22;9687;50.836;12.060;2023-09-19T04:05:21;19.80;91.10
19110;DHT22;9687;50.836;12.060;2023-09-19T04:07:48;19.80;91.10
19110;DHT22;9687;50.836;12.060;2023-09-19T04:10:28;19.90;91.50
19110;DHT22;9687;50.836;12.060;2023-09-19T04:13:12;19.80;91.10
19110;DHT22;9687;50.836;12.060;2023-09-19T04:15:40;19.90;91.20
19110;DHT22;9687;50.836;12.060;2023-09-19T04:18:18;19.90;91.20
19110;DHT22;9687;50.836;12.060;2023-09-19T04:20:50;19.80;91.10
19110;DHT22;9687;50.836;12.060;2023-09-19T04:23:17;19.80;91.10
19110;DHT22;9687;50.836;12.060;2023-09-19T04:25:45;19.80;91.20
19110;DHT22;9687;50.836;12.060;2023-09-19T04:28:15;19.80;91.10
19110;DHT22;9687;50.836;12.060;2023-09-19T04:30:48;19.80;91.10
19110;DHT22;9687;50.836;12.060;2023-09-19T04:33:41;19.80;91.50
19110;DHT22;9687;50.836;12.060;2023-09-19T04:36:10;19.80;91.10
19110;DHT22;9687;50.836;12.060;2023-09-19T04:38:39;19.80;91.10
19110;DHT22;9687;50.836;12.060;2023-09-19T04:41:06;19.80;91.10
19110;DHT22;9687;50.836;12.060;2023-09-19T04:43:34;19.80;91.10
19110;DHT22;9687;50.836;12.060;2023-09-19T04:46:10;19.80;91.10
19110;DHT22;9687;50.836;12.060;2023-09-19T04:48:41;19.80;91.10
19110;DHT22;9687;50.836;12.060;2023-09-19T04:51:10;19.70;91.00
19110;DHT22;9687;50.836;12.060;2023-09-19T04:53:51;19.70;91.10
19110;DHT22;9687;50.836;12.060;2023-09-19T04:56:18;19.70;91.10
19110;DHT22;9687;50.836;12.060;2023-09-19T04:58:49;19.70;91.10
19110;DHT22;9687;50.836;12.060;2023-09-19T05:01:22;19.70;91.10
19110;DHT22;9687;50.836;12.060;2023-09-19T05:03:49;19.70;91.10
19110;DHT22;9687;50.836;12.060;2023-09-19T05:06:20;19.70;91.10
19110;DHT22;9687;50.836;12.060;2023-09-19T05:08:49;19.70;91.10
19110;DHT22;9687;50.836;12.060;2023-09-19T05:11:18;19.70;91.10
19110;DHT22;9687;50.836;12.060;2023-09-19T05:13:59;19.70;91.10
19110;DHT22;9687;50.836;12.060;2023-09-19T05:16:35;19.70;91.10
19110;DHT22;9687;50.836;12.060;2023-09-19T05:19:02;19.70;91.10
19110;DHT22;9687;50.836;12.060;2023-09-19T05:21:34;19.80;91.20
19110;DHT22;9687;50.836;12.060;2023-09-19T05:24:04;19.70;91.10
19110;DHT22;9687;50.836;12.060;2023-09-19T05:26:34;19.80;91.10
19110;DHT22;9687;50.836;12.060;2023-09-19T05:29:05;19.80;91.30
19110;DHT22;9687;50.836;12.060;2023-09-19T05:31:36;19.80;91.60
19110;DHT22;9687;50.836;12.060;2023-09-19T05:34:07;19.70;91.90
19110;DHT22;9687;50.836;12.060;2023-09-19T05:36:41;19.70;92.10
19110;DHT22;9687;50.836;12.060;2023-09-19T05:39:09;19.70;92.20
19110;DHT22;9687;50.836;12.060;2023-09-19T05:41:37;19.60;92.30
19110;DHT22;9687;50.836;12.060;2023-09-19T05:44:06;19.60;92.50
19110;DHT22;9687;50.836;12.060;2023-09-19T05:46:38;19.50;92.50
19110;DHT22;9687;50.836;12.060;2023-09-19T05:49:05;19.60;92.50
19110;DHT22;9687;50.836;12.060;2023-09-19T05:51:38;19.60;92.70
19110;DHT22;9687;50.836;12.060;2023-09-19T05:54:32;19.60;92.70
19110;DHT22;9687;50.836;12.060;2023-09-19T05:57:10;19.60;92.80
19110;DHT22;9687;50.836;12.060;2023-09-19T05:59:38;19.60;92.80
19110;DHT22;9687;50.836;12.060;2023-09-19T06:02:11;19.50;92.70
19110;DHT22;9687;50.836;12.060;2023-09-19T06:04:40;19.60;92.70
19110;DHT22;9687;50.836;12.060;2023-09-19T06:07:08;19.60;92.80
19110;DHT22;9687;50.836;12.060;2023-09-19T06:09:41;19.60;92.80
19110;DHT22;9687;50.836;12.060;2023-09-19T06:12:10;19.60;92.90
19110;DHT22;9687;50.836;12.060;2023-09-19T06:14:39;19.60;92.90
19110;DHT22;9687;50.836;12.060;2023-09-19T06:17:09;19.60;93.00
19110;DHT22;9687;50.836;12.060;2023-09-19T06:19:37;19.60;93.00
19110;DHT22;9687;50.836;12.060;2023-09-19T06:22:06;19.60;93.00
19110;DHT22;9687;50.836;12.060;2023-09-19T06:24:35;19.70;93.00
19110;DHT22;9687;50.836;12.060;2023-09-19T06:27:04;19.70;93.00
19110;DHT22;9687;50.836;12.060;2023-09-19T06:29:33;19.80;93.10
19110;DHT22;9687;50.836;12.060;2023-09-19T06:32:02;19.80;93.10
19110;DHT22;9687;50.836;12.060;2023-09-19T06:34:31;19.90;93.20
19110;DHT22;9687;50.836;12.060;2023-09-19T06:37:03;20.00;93.60
19110;DHT22;9687;50.836;12.060;2023-09-19T06:39:32;20.10;93.30
19110;DHT22;9687;50.836;12.060;2023-09-19T06:42:00;20.10;93.20
19110;DHT22;9687;50.836;12.060;2023-09-19T06:44:29;20.30;93.30
19110;DHT22;9687;50.836;12.060;2023-09-19T06:46:58;20.40;93.40
19110;DHT22;9687;50.836;12.060;2023-09-19T06:49:26;20.50;93.40
19110;DHT22;9687;50.836;12.060;2023-09-19T06:51:58;20.60;93.40
19110;DHT22;9687;50.836;12.060;2023-09-19T06:54:26;20.80;93.40
19110;DHT22;9687;50.836;12.060;2023-09-19T06:56:57;21.00;93.50
19110;DHT22;9687;50.836;12.060;2023-09-19T06:59:24;21.20;93.50
19110;DHT22;9687;50.836;12.060;2023-09-19T07:02:02;21.40;93.60
19110;DHT22;9687;50.836;12.060;2023-09-19T07:04:33;21.70;93.50
19110;DHT22;9687;50.836;12.060;2023-09-19T07:07:01;22.00;93.20
19110;DHT22;9687;50.836;12.060;2023-09-19T07:09:29;22.40;93.20
19110;DHT22;9687;50.836;12.060;2023-09-19T07:11:58;22.80;93.00
19110;DHT22;9687;50.836;12.060;2023-09-19T07:14:28;23.30;92.50
19110;DHT22;9687;50.836;12.060;2023-09-19T07:17:19;23.70;91.80
19110;DHT22;9687;50.836;12.060;2023-09-19T07:19:50;24.20;90.80
19110;DHT22;9687;50.836;12.060;2023-09-19T07:22:18;24.50;89.50
19110;DHT22;9687;50.836;12.060;2023-09-19T07:24:50;24.60;85.50
19110;DHT22;9687;50.836;12.060;2023-09-19T07:27:19;24.50;83.60
19110;DHT22;9687;50.836;12.060;2023-09-19T07:29:47;24.40;82.50
19110;DHT22;9687;50.836;12.060;2023-09-19T07:32:14;24.30;81.50
19110;DHT22;9687;50.836;12.060;2023-09-19T07:34:45;24.20;80.80
19110;DHT22;9687;50.836;12.060;2023-09-19T07:37:14;24.10;81.00
19110;DHT22;9687;50.836;12.060;2023-09-19T07:39:42;24.10;81.20
19110;DHT22;9687;50.836;12.060;2023-09-19T07:42:10;24.10;80.50
19110;DHT22;9687;50.836;12.060;2023-09-19T07:44:44;24.10;79.60
19110;DHT22;9687;50.836;12.060;2023-09-19T07:47:15;24.00;78.80
19110;DHT22;9687;50.836;12.060;2023-09-19T07:49:47;24.00;78.90
19110;DHT22;9687;50.836;12.060;2023-09-19T07:52:17;24.10;78.80
19110;DHT22;9687;50.836;12.060;2023-09-19T07:54:46;24.20;78.00
19110;DHT22;9687;50.836;12.060;2023-09-19T07:57:15;24.30;77.00
19110;DHT22;9687;50.836;12.060;2023-09-19T07:59:48;24.30;76.00
19110;DHT22;9687;50.836;12.060;2023-09-19T08:02:19;24.30;75.80
19110;DHT22;9687;50.836;12.060;2023-09-19T08:04:49;24.30;74.80
19110;DHT22;9687;50.836;12.060;2023-09-19T08:07:25;24.20;74.80
19110;DHT22;9687;50.836;12.060;2023-09-19T08:09:54;24.20;75.10
19110;DHT22;9687;50.836;12.060;2023-09-19T08:12:24;24.30;74.60
19110;DHT22;9687;50.836;12.060;2023-09-19T08:14:52;24.40;73.90
19110;DHT22;9687;50.836;12.060;2023-09-19T08:17:31;24.30;73.60
19110;DHT22;9687;50.836;12.060;2023-09-19T08:20:02;24.40;74.00
19110;DHT22;9687;50.836;12.060;2023-09-19T08:22:31;24.50;73.20
19110;DHT22;9687;50.836;12.060;2023-09-19T08:24:59;24.60;72.50
19110;DHT22;9687;50.836;12.060;2023-09-19T08:27:30;24.50;72.20
19110;DHT22;9687;50.836;12.060;2023-09-19T08:29:58;24.40;71.70
19110;DHT22;9687;50.836;12.060;2023-09-19T08:32:25;24.30;71.60
19110;DHT22;9687;50.836;12.060;2023-09-19T08:34:53;24.20;71.70
19110;DHT22;9687;50.836;12.060;2023-09-19T08:37:22;24.00;71.50
19110;DHT22;9687;50.836;12.060;2023-09-19T08:39:50;23.90;71.90
19110;DHT22;9687;50.836;12.060;2023-09-19T08:42:18;23.80;72.40
19110;DHT22;9687;50.836;12.060;2023-09-19T08:45:00;23.80;72.00
19110;DHT22;9687;50.836;12.060;2023-09-19T08:47:36;23.80;72.10
19110;DHT22;9687;50.836;12.060;2023-09-19T08:50:08;23.90;72.10
19110;DHT22;9687;50.836;12.060;2023-09-19T08:52:42;24.10;72.00
19110;DHT22;9687;50.836;12.060;2023-09-19T08:55:11;24.30;71.80
19110;DHT22;9687;50.836;12.060;2023-09-19T08:57:39;24.40;71.70
19110;DHT22;9687;50.836;12.060;2023-09-19T09:00:09;24.60;71.40
19110;DHT22;9687;50.836;12.060;2023-09-19T09:02:42;24.80;70.50
19110;DHT22;9687;50.836;12.060;2023-09-19T09:05:10;24.80;70.00
19110;DHT22;9687;50.836;12.060;2023-09-19T09:07:37;24.90;69.20
19110;DHT22;9687;50.836;12.060;2023-09-19T09:10:07;24.90;68.90
19110;DHT22;9687;50.836;12.060;2023-09-19T09:12:35;24.80;68.30
19110;DHT22;9687;50.836;12.060;2023-09-19T09:15:05;24.80;68.10
19110;DHT22;9687;50.836;12.060;2023-09-19T09:17:38;24.70;67.80
19110;DHT22;9687;50.836;12.060;2023-09-19T09:20:09;24.60;67.90
19110;DHT22;9687;50.836;12.060;2023-09-19T09:22:38;24.50;67.90
19110;DHT22;9687;50.836;12.060;2023-09-19T09:25:11;24.50;67.90
19110;DHT22;9687;50.836;12.060;2023-09-19T09:27:40;24.60;67.40
19110;DHT22;9687;50.836;12.060;2023-09-19T09:30:09;24.50;67.40
19110;DHT22;9687;50.836;12.060;2023-09-19T09:32:41;24.50;67.70
19110;DHT22;9687;50.836;12.060;2023-09-19T09:35:10;24.50;67.30
19110;DHT22;9687;50.836;12.060;2023-09-19T09:37:41;24.40;66.80
19110;DHT22;9687;50.836;12.060;2023-09-19T09:40:15;24.40;66.60
19110;DHT22;9687;50.836;12.060;2023-09-19T09:43:02;24.30;66.70
19110;DHT22;9687;50.836;12.060;2023-09-19T09:45:30;24.30;66.50
19110;DHT22;9687;50.836;12.060;2023-09-19T09:48:08;24.20;66.40
19110;DHT22;9687;50.836;12.060;2023-09-19T09:50:46;24.20;66.40
19110;DHT22;9687;50.836;12.060;2023-09-19T09:53:21;24.10;66.30
19110;DHT22;9687;50.836;12.060;2023-09-19T09:55:59;24.00;66.80
19110;DHT22;9687;50.836;12.060;2023-09-19T09:58:33;24.10;67.20
19110;DHT22;9687;50.836;12.060;2023-09-19T10:01:01;24.20;67.30
19110;DHT22;9687;50.836;12.060;2023-09-19T10:03:36;24.30;67.20
19110;DHT22;9687;50.836;12.060;2023-09-19T10:06:15;24.40;67.00
19110;DHT22;9687;50.836;12.060;2023-09-19T10:09:00;24.60;66.80
19110;DHT22;9687;50.836;12.060;2023-09-19T10:11:42;24.70;66.50
19110;DHT22;9687;50.836;12.060;2023-09-19T10:14:11;24.90;66.00
19110;DHT22;9687;50.836;12.060;2023-09-19T10:16:40;25.00;65.40
19110;DHT22;9687;50.836;12.060;2023-09-19T10:19:09;25.00;65.60
19110;DHT22;9687;50.836;12.060;2023-09-19T10:21:41;25.10;64.60
19110;DHT22;9687;50.836;12.060;2023-09-19T10:24:09;25.00;64.40
19110;DHT22;9687;50.836;12.060;2023-09-19T10:26:39;25.00;64.20
19110;DHT22;9687;50.836;12.060;2023-09-19T10:29:28;24.90;64.10
19110;DHT22;9687;50.836;12.060;2023-09-19T10:32:16;24.70;64.10
19110;DHT22;9687;50.836;12.060;2023-09-19T10:34:52;24.60;64.20
19110;DHT22;9687;50.836;12.060;2023-09-19T10:37:21;24.50;64.60
19110;DHT22;9687;50.836;12.060;2023-09-19T10:39:54;24.50;64.90
19110;DHT22;9687;50.836;12.060;2023-09-19T10:42:24;24.70;64.80
19110;DHT22;9687;50.836;12.060;2023-09-19T10:44:56;24.70;64.20
19110;DHT22;9687;50.836;12.060;2023-09-19T10:47:26;24.70;64.00
19110;DHT22;9687;50.836;12.060;2023-09-19T10:49:54;24.70;63.80
19110;DHT22;9687;50.836;12.060;2023-09-19T10:52:24;24.70;63.60
19110;DHT22;9687;50.836;12.060;2023-09-19T10:55:01;24.60;63.50
19110;DHT22;9687;50.836;12.060;2023-09-19T10:57:29;24.50;63.60
19110;DHT22;9687;50.836;12.060;2023-09-19T11:00:17;24.50;63.70
19110;DHT22;9687;50.836;12.060;2023-09-19T11:05:42;24.40;64.00
19110;DHT22;9687;50.836;12.060;2023-09-19T11:08:11;24.40;63.80
19110;DHT22;9687;50.836;12.060;2023-09-19T11:10:44;24.40;63.40
19110;DHT22;9687;50.836;12.060;2023-09-19T11:13:25;24.40;62.60
19110;DHT22;9687;50.836;12.060;2023-09-19T11:16:04;24.50;62.50
19110;DHT22;9687;50.836;12.060;2023-09-19T11:21:39;24.80;62.70
19110;DHT22;9687;50.836;12.060;2023-09-19T11:24:27;24.90;62.30
19110;DHT22;9687;50.836;12.060;2023-09-19T11:27:14;25.00;62.10
19110;DHT22;9687;50.836;12.060;2023-09-19T11:29:44;25.20;61.70
19110;DHT22;9687;50.836;12.060;2023-09-19T11:32:20;25.30;61.00
19110;DHT22;9687;50.836;12.060;2023-09-19T11:35:09;25.40;60.40
19110;DHT22;9687;50.836;12.060;2023-09-19T11:46:53;25.90;59.50
19110;DHT22;9687;50.836;12.060;2023-09-19T11:49:25;26.00;59.40
19110;DHT22;9687;50.836;12.060;2023-09-19T11:51:56;26.10;59.30
19110;DHT22;9687;50.836;12.060;2023-09-19T11:54:32;26.20;58.90
19110;DHT22;9687;50.836;12.060;2023-09-19T11:57:00;26.20;58.40
19110;DHT22;9687;50.836;12.060;2023-09-19T11:59:28;26.20;57.90
19110;DHT22;9687;50.836;12.060;2023-09-19T12:01:57;26.10;58.20
19110;DHT22;9687;50.836;12.060;2023-09-19T12:04:34;26.10;57.90
19110;DHT22;9687;50.836;12.060;2023-09-19T12:07:04;26.10;57.90
19110;DHT22;9687;50.836;12.060;2023-09-19T12:09:39;26.10;57.90
19110;DHT22;9687;50.836;12.060;2023-09-19T12:12:10;26.00;57.30
19110;DHT22;9687;50.836;12.060;2023-09-19T12:14:39;25.90;57.20
19110;DHT22;9687;50.836;12.060;2023-09-19T12:17:09;25.80;57.30
19110;DHT22;9687;50.836;12.060;2023-09-19T12:19:49;25.80;57.00
19110;DHT22;9687;50.836;12.060;2023-09-19T12:22:19;25.70;56.90
19110;DHT22;9687;50.836;12.060;2023-09-19T12:24:47;25.70;57.10
19110;DHT22;9687;50.836;12.060;2023-09-19T12:27:43;25.70;56.60
19110;DHT22;9687;50.836;12.060;2023-09-19T12:30:13;25.60;56.20
19110;DHT22;9687;50.836;12.060;2023-09-19T12:32:44;25.50;56.30
19110;DHT22;9687;50.836;12.060;2023-09-19T12:35:28;25.40;56.60
19110;DHT22;9687;50.836;12.060;2023-09-19T12:37:57;25.30;56.60
19110;DHT22;9687;50.836;12.060;2023-09-19T12:40:25;25.30;56.60
19110;DHT22;9687;50.836;12.060;2023-09-19T12:42:56;25.30;56.30
19110;DHT22;9687;50.836;12.060;2023-09-19T12:45:25;25.20;56.30
19110;DHT22;9687;50.836;12.060;2023-09-19T12:51:00;25.20;56.40
19110;DHT22;9687;50.836;12.060;2023-09-19T12:53:32;25.20;56.30
19110;DHT22;9687;50.836;12.060;2023-09-19T12:56:24;25.20;56.10
19110;DHT22;9687;50.836;12.060;2023-09-19T12:58:54;25.10;56.20
19110;DHT22;9687;50.836;12.060;2023-09-19T13:01:23;25.00;56.20
19110;DHT22;9687;50.836;12.060;2023-09-19T13:04:13;25.00;56.30
19110;DHT22;9687;50.836;12.060;2023-09-19T13:07:05;25.00;56.30
19110;DHT22;9687;50.836;12.060;2023-09-19T13:09:34;25.00;56.30
19110;DHT22;9687;50.836;12.060;2023-09-19T13:15:06;24.90;56.30
19110;DHT22;9687;50.836;12.060;2023-09-19T13:17:43;24.90;56.30
19110;DHT22;9687;50.836;12.060;2023-09-19T13:20:23;24.90;56.10
19110;DHT22;9687;50.836;12.060;2023-09-19T13:22:59;24.90;56.00
19110;DHT22;9687;50.836;12.060;2023-09-19T13:25:32;24.80;55.80
19110;DHT22;9687;50.836;12.060;2023-09-19T13:28:00;24.80;55.30
19110;DHT22;9687;50.836;12.060;2023-09-19T13:30:31;24.80;55.70
19110;DHT22;9687;50.836;12.060;2023-09-19T13:33:06;24.80;55.10
19110;DHT22;9687;50.836;12.060;2023-09-19T13:35:33;24.70;55.00
19110;DHT22;9687;50.836;12.060;2023-09-19T13:38:04;24.70;55.00
19110;DHT22;9687;50.836;12.060;2023-09-19T13:40:36;24.70;54.80
19110;DHT22;9687;50.836;12.060;2023-09-19T13:43:05;24.70;54.60
19110;DHT22;9687;50.836;12.060;2023-09-19T13:45:33;24.70;54.80
19110;DHT22;9687;50.836;12.060;2023-09-19T13:48:13;24.60;54.70
19110;DHT22;9687;50.836;12.060;2023-09-19T13:50:41;24.60;54.70
19110;DHT22;9687;50.836;12.060;2023-09-19T13:53:14;24.50;54.80
19110;DHT22;9687;50.836;12.060;2023-09-19T13:55:47;24.50;54.70
19110;DHT22;9687;50.836;12.060;2023-09-19T13:58:16;24.50;54.70
19110;DHT22;9687;50.836;12.060;2023-09-19T14:00:44;24.50;54.70
19110;DHT22;9687;50.836;12.060;2023-09-19T14:03:19;24.50;54.50
19110;DHT22;9687;50.836;12.060;2023-09-19T14:05:52;24.40;54.50
19110;DHT22;9687;50.836;12.060;2023-09-19T14:08:30;24.50;54.60
19110;DHT22;9687;50.836;12.060;2023-09-19T14:11:05;24.40;54.50
19110;DHT22;9687;50.836;12.060;2023-09-19T14:13:33;24.40;55.10
19110;DHT22;9687;50.836;12.060;2023-09-19T14:16:02;24.40;54.70
19110;DHT22;9687;50.836;12.060;2023-09-19T14:18:37;24.40;54.70
19110;DHT22;9687;50.836;12.060;2023-09-19T14:21:10;24.40;54.80
19110;DHT22;9687;50.836;12.060;2023-09-19T14:23:43;24.40;54.70
19110;DHT22;9687;50.836;12.060;2023-09-19T14:26:26;24.40;54.60
19110;DHT22;9687;50.836;12.060;2023-09-19T14:28:54;24.40;54.50
19110;DHT22;9687;50.836;12.060;2023-09-19T14:31:31;24.40;54.40
19110;DHT22;9687;50.836;12.060;2023-09-19T14:34:03;24.40;54.50
19110;DHT22;9687;50.836;12.060;2023-09-19T14:36:46;24.40;54.70
19110;DHT22;9687;50.836;12.060;2023-09-19T14:39:39;24.40;54.40
19110;DHT22;9687;50.836;12.060;2023-09-19T14:42:06;24.40;54.60
19110;DHT22;9687;50.836;12.060;2023-09-19T14:44:36;24.30;54.40
19110;DHT22;9687;50.836;12.060;2023-09-19T14:47:25;24.40;54.40
19110;DHT22;9687;50.836;12.060;2023-09-19T14:49:53;24.30;53.90
19110;DHT22;9687;50.836;12.060;2023-09-19T14:52:21;24.30;54.10
19110;DHT22;9687;50.836;12.060;2023-09-19T14:54:52;24.40;54.40
19110;DHT22;9687;50.836;12.060;2023-09-19T14:57:20;24.40;54.30
19110;DHT22;9687;50.836;12.060;2023-09-19T14:59:50;24.40;54.30
19110;DHT22;9687;50.836;12.060;2023-09-19T15:02:33;24.40;53.90
19110;DHT22;9687;50.836;12.060;2023-09-19T15:05:00;24.40;54.00
19110;DHT22;9687;50.836;12.060;2023-09-19T15:07:28;24.40;53.90
19110;DHT22;9687;50.836;12.060;2023-09-19T15:09:57;24.40;53.80
19110;DHT22;9687;50.836;12.060;2023-09-19T15:12:29;24.40;53.60
19110;DHT22;9687;50.836;12.060;2023-09-19T15:14:57;24.40;53.60
19110;DHT22;9687;50.836;12.060;2023-09-19T15:17:24;24.40;53.40
19110;DHT22;9687;50.836;12.060;2023-09-19T15:20:10;24.30;53.30
19110;DHT22;9687;50.836;12.060;2023-09-19T15:22:40;24.30;53.10
19110;DHT22;9687;50.836;12.060;2023-09-19T15:25:10;24.20;53.00
19110;DHT22;9687;50.836;12.060;2023-09-19T15:27:47;24.10;52.70
19110;DHT22;9687;50.836;12.060;2023-09-19T15:30:19;24.10;52.80
19110;DHT22;9687;50.836;12.060;2023-09-19T15:32:50;24.00;52.60
19110;DHT22;9687;50.836;12.060;2023-09-19T15:35:17;24.00;52.70
19110;DHT22;9687;50.836;12.060;2023-09-19T15:37:45;24.00;52.60
19110;DHT22;9687;50.836;12.060;2023-09-19T15:40:16;23.90;52.50
19110;DHT22;9687;50.836;12.060;2023-09-19T15:42:48;23.80;52.60
19110;DHT22;9687;50.836;12.060;2023-09-19T15:45:18;23.80;52.60
19110;DHT22;9687;50.836;12.060;2023-09-19T15:47:58;23.70;52.20
19110;DHT22;9687;50.836;12.060;2023-09-19T15:50:32;23.70;52.40
19110;DHT22;9687;50.836;12.060;2023-09-19T15:53:05;23.60;52.50
19110;DHT22;9687;50.836;12.060;2023-09-19T15:55:41;23.60;52.70
19110;DHT22;9687;50.836;12.060;2023-09-19T15:58:09;23.50;52.70
19110;DHT22;9687;50.836;12.060;2023-09-19T16:00:39;23.50;52.80
19110;DHT22;9687;50.836;12.060;2023-09-19T16:03:06;23.40;52.80
19110;DHT22;9687;50.836;12.060;2023-09-19T16:05:35;23.40;52.80
19110;DHT22;9687;50.836;12.060;2023-09-19T16:08:05;23.40;52.70
19110;DHT22;9687;50.836;12.060;2023-09-19T16:10:44;23.40;52.60
19110;DHT22;9687;50.836;12.060;2023-09-19T16:13:17;23.30;52.60
19110;DHT22;9687;50.836;12.060;2023-09-19T16:15:44;23.30;52.40
19110;DHT22;9687;50.836;12.060;2023-09-19T16:18:11;23.30;52.40
19110;DHT22;9687;50.836;12.060;2023-09-19T16:20:44;23.20;52.40
19110;DHT22;9687;50.836;12.060;2023-09-19T16:23:12;23.20;52.30
19110;DHT22;9687;50.836;12.060;2023-09-19T16:25:46;23.20;52.40
19110;DHT22;9687;50.836;12.060;2023-09-19T16:28:24;23.10;52.20